sensor_id;sensor_type;location;lat;lon;timestamp;P1;durP1;ratioP1;P2;durP2;ratioP2
14982;SDS011;7587;51.494;11.930;2022-07-01T00:04:57;14.73;;;13.32;;
14982;SDS011;7587;51.494;11.930;2022-07-01T00:07:27;15.80;;;14.18;;
14982;SDS011;7587;51.494;11.930;2022-07-01T00:09:53;14.20;;;12.75;;
14982;SDS011;7587;51.494;11.930;2022-07-01T00:12:21;15.30;;;13.80;;
14982;SDS011;7587;51.494;11.930;2022-07-01T00:14:49;13.65;;;12.43;;
14982;SDS011;7587;51.494;11.930;2022-07-01T00:20:21;15.57;;;13.85;;
14982;SDS011;7587;51.494;11.930;2022-07-01T00:23:06;14.85;;;13.00;;
14982;SDS011;7587;51.494;11.930;2022-07-01T00:28:56;16.05;;;14.18;;
14982;SDS011;7587;51.494;11.930;2022-07-01T00:31:33;15.02;;;13.52;;
14982;SDS011;7587;51.494;11.930;2022-07-01T00:34:00;14.77;;;13.27;;
14982;SDS011;7587;51.494;11.930;2022-07-01T00:39:33;15.63;;;14.13;;
14982;SDS011;7587;51.494;11.930;2022-07-01T00:42:01;15.63;;;13.57;;
14982;SDS011;7587;51.494;11.930;2022-07-01T00:50:45;14.18;;;12.80;;
14982;SDS011;7587;51.494;11.930;2022-07-01T00:56:19;14.38;;;12.88;;
14982;SDS011;7587;51.494;11.930;2022-07-01T00:59:05;16.02;;;14.23;;
14982;SDS011;7587;51.494;11.930;2022-07-01T01:05:19;14.48;;;13.07;;
14982;SDS011;7587;51.494;11.930;2022-07-01T01:10:52;14.55;;;13.07;;
14982;SDS011;7587;51.494;11.930;2022-07-01T01:19:56;15.10;;;13.50;;
14982;SDS011;7587;51.494;11.930;2022-07-01T01:22:57;16.23;;;12.38;;
14982;SDS011;7587;51.494;11.930;2022-07-01T01:25:29;15.18;;;13.02;;
14982;SDS011;7587;51.494;11.930;2022-07-01T01:31:09;15.27;;;13.23;;
14982;SDS011;7587;51.494;11.930;2022-07-01T01:36:39;15.32;;;13.75;;
14982;SDS011;7587;51.494;11.930;2022-07-01T01:39:07;14.32;;;12.80;;
14982;SDS011;7587;51.494;11.930;2022-07-01T01:41:35;15.18;;;13.70;;
14982;SDS011;7587;51.494;11.930;2022-07-01T01:44:03;16.67;;;14.73;;
14982;SDS011;7587;51.494;11.930;2022-07-01T01:46:29;15.40;;;13.88;;
14982;SDS011;7587;51.494;11.930;2022-07-01T01:48:56;16.23;;;14.52;;
14982;SDS011;7587;51.494;11.930;2022-07-01T01:51:23;15.13;;;13.77;;
14982;SDS011;7587;51.494;11.930;2022-07-01T01:53:49;15.73;;;14.18;;
14982;SDS011;7587;51.494;11.930;2022-07-01T01:56:17;15.60;;;13.93;;
14982;SDS011;7587;51.494;11.930;2022-07-01T01:58:44;15.13;;;13.52;;
14982;SDS011;7587;51.494;11.930;2022-07-01T02:01:10;15.75;;;14.32;;
14982;SDS011;7587;51.494;11.930;2022-07-01T02:03:37;16.33;;;14.70;;
14982;SDS011;7587;51.494;11.930;2022-07-01T02:06:03;15.32;;;13.73;;
14982;SDS011;7587;51.494;11.930;2022-07-01T02:08:29;15.52;;;13.98;;
14982;SDS011;7587;51.494;11.930;2022-07-01T02:10:56;15.57;;;13.80;;
14982;SDS011;7587;51.494;11.930;2022-07-01T02:13:25;16.17;;;14.57;;
14982;SDS011;7587;51.494;11.930;2022-07-01T02:15:51;16.88;;;14.60;;
14982;SDS011;7587;51.494;11.930;2022-07-01T02:18:19;16.55;;;14.95;;
14982;SDS011;7587;51.494;11.930;2022-07-01T02:23:27;16.35;;;14.77;;
14982;SDS011;7587;51.494;11.930;2022-07-01T02:23:58;17.02;;;15.30;;
14982;SDS011;7587;51.494;11.930;2022-07-01T02:26:42;17.27;;;15.52;;
14982;SDS011;7587;51.494;11.930;2022-07-01T02:29:22;17.88;;;15.68;;
14982;SDS011;7587;51.494;11.930;2022-07-01T02:31:51;18.33;;;16.42;;
14982;SDS011;7587;51.494;11.930;2022-07-01T02:34:18;22.63;;;17.15;;
14982;SDS011;7587;51.494;11.930;2022-07-01T02:40:20;21.95;;;17.23;;
14982;SDS011;7587;51.494;11.930;2022-07-01T02:45:50;20.17;;;17.95;;
14982;SDS011;7587;51.494;11.930;2022-07-01T02:48:18;20.17;;;18.17;;
14982;SDS011;7587;51.494;11.930;2022-07-01T02:50:45;20.45;;;18.45;;
14982;SDS011;7587;51.494;11.930;2022-07-01T02:53:12;20.42;;;18.38;;
14982;SDS011;7587;51.494;11.930;2022-07-01T02:58:43;20.60;;;18.10;;
14982;SDS011;7587;51.494;11.930;2022-07-01T03:01:20;22.38;;;19.48;;
14982;SDS011;7587;51.494;11.930;2022-07-01T03:03:46;21.52;;;18.77;;
14982;SDS011;7587;51.494;11.930;2022-07-01T03:12:30;20.35;;;18.25;;
14982;SDS011;7587;51.494;11.930;2022-07-01T03:18:14;20.60;;;18.38;;
14982;SDS011;7587;51.494;11.930;2022-07-01T03:20:51;16.35;;;14.60;;
14982;SDS011;7587;51.494;11.930;2022-07-01T03:23:20;15.80;;;14.07;;
14982;SDS011;7587;51.494;11.930;2022-07-01T03:25:48;13.60;;;12.20;;
14982;SDS011;7587;51.494;11.930;2022-07-01T03:28:16;14.98;;;13.32;;
14982;SDS011;7587;51.494;11.930;2022-07-01T03:33:45;16.88;;;13.77;;
14982;SDS011;7587;51.494;11.930;2022-07-01T03:36:12;17.67;;;14.73;;
14982;SDS011;7587;51.494;11.930;2022-07-01T03:38:39;16.38;;;14.63;;
14982;SDS011;7587;51.494;11.930;2022-07-01T03:41:11;17.92;;;14.60;;
14982;SDS011;7587;51.494;11.930;2022-07-01T03:43:38;17.73;;;15.73;;
14982;SDS011;7587;51.494;11.930;2022-07-01T03:46:04;17.02;;;15.43;;
14982;SDS011;7587;51.494;11.930;2022-07-01T03:48:31;17.75;;;15.93;;
14982;SDS011;7587;51.494;11.930;2022-07-01T04:03:20;18.95;;;17.15;;
14982;SDS011;7587;51.494;11.930;2022-07-01T04:06:07;18.95;;;17.17;;
14982;SDS011;7587;51.494;11.930;2022-07-01T04:11:48;17.73;;;15.90;;
14982;SDS011;7587;51.494;11.930;2022-07-01T04:14:44;17.92;;;16.33;;
14982;SDS011;7587;51.494;11.930;2022-07-01T04:17:30;15.02;;;13.55;;
14982;SDS011;7587;51.494;11.930;2022-07-01T04:20:04;11.75;;;10.65;;
14982;SDS011;7587;51.494;11.930;2022-07-01T04:22:30;9.25;;;8.13;;
14982;SDS011;7587;51.494;11.930;2022-07-01T04:24:58;8.38;;;7.35;;
14982;SDS011;7587;51.494;11.930;2022-07-01T04:27:25;8.88;;;7.13;;
14982;SDS011;7587;51.494;11.930;2022-07-01T04:29:52;8.07;;;7.20;;
14982;SDS011;7587;51.494;11.930;2022-07-01T04:32:20;7.82;;;7.03;;
14982;SDS011;7587;51.494;11.930;2022-07-01T04:34:47;8.85;;;6.93;;
14982;SDS011;7587;51.494;11.930;2022-07-01T04:37:15;7.40;;;6.70;;
14982;SDS011;7587;51.494;11.930;2022-07-01T04:39:42;8.10;;;7.30;;
14982;SDS011;7587;51.494;11.930;2022-07-01T04:42:08;8.35;;;7.38;;
14982;SDS011;7587;51.494;11.930;2022-07-01T04:44:34;8.55;;;7.60;;
14982;SDS011;7587;51.494;11.930;2022-07-01T04:47:01;9.40;;;7.85;;
14982;SDS011;7587;51.494;11.930;2022-07-01T04:49:28;8.07;;;7.32;;
14982;SDS011;7587;51.494;11.930;2022-07-01T04:51:54;8.10;;;7.30;;
14982;SDS011;7587;51.494;11.930;2022-07-01T04:54:24;8.35;;;7.15;;
14982;SDS011;7587;51.494;11.930;2022-07-01T04:56:51;9.00;;;7.38;;
14982;SDS011;7587;51.494;11.930;2022-07-01T04:59:18;8.25;;;7.47;;
14982;SDS011;7587;51.494;11.930;2022-07-01T05:01:46;14.88;;;13.38;;
14982;SDS011;7587;51.494;11.930;2022-07-01T05:04:14;16.75;;;15.05;;
14982;SDS011;7587;51.494;11.930;2022-07-01T05:06:42;16.55;;;14.80;;
14982;SDS011;7587;51.494;11.930;2022-07-01T05:09:08;15.93;;;14.32;;
14982;SDS011;7587;51.494;11.930;2022-07-01T05:11:36;16.85;;;15.18;;
14982;SDS011;7587;51.494;11.930;2022-07-01T05:14:03;18.13;;;15.55;;
14982;SDS011;7587;51.494;11.930;2022-07-01T05:16:30;16.45;;;14.85;;
14982;SDS011;7587;51.494;11.930;2022-07-01T05:18:56;16.23;;;14.63;;
14982;SDS011;7587;51.494;11.930;2022-07-01T05:21:40;14.65;;;13.25;;
14982;SDS011;7587;51.494;11.930;2022-07-01T05:24:22;16.73;;;14.15;;
14982;SDS011;7587;51.494;11.930;2022-07-01T05:26:50;15.32;;;13.82;;
14982;SDS011;7587;51.494;11.930;2022-07-01T05:29:16;15.85;;;14.25;;
14982;SDS011;7587;51.494;11.930;2022-07-01T05:31:42;15.98;;;14.05;;
14982;SDS011;7587;51.494;11.930;2022-07-01T05:34:09;16.58;;;14.82;;
14982;SDS011;7587;51.494;11.930;2022-07-01T05:36:35;16.05;;;13.85;;
14982;SDS011;7587;51.494;11.930;2022-07-01T05:39:01;14.38;;;12.98;;
14982;SDS011;7587;51.494;11.930;2022-07-01T05:41:28;14.27;;;12.98;;
14982;SDS011;7587;51.494;11.930;2022-07-01T05:43:56;14.68;;;13.13;;
14982;SDS011;7587;51.494;11.930;2022-07-01T05:46:22;14.55;;;12.95;;
14982;SDS011;7587;51.494;11.930;2022-07-01T05:48:48;14.25;;;12.93;;
14982;SDS011;7587;51.494;11.930;2022-07-01T05:51:15;13.38;;;12.13;;
14982;SDS011;7587;51.494;11.930;2022-07-01T05:53:41;18.20;;;13.77;;
14982;SDS011;7587;51.494;11.930;2022-07-01T05:56:08;17.92;;;13.25;;
14982;SDS011;7587;51.494;11.930;2022-07-01T05:58:34;13.40;;;12.15;;
14982;SDS011;7587;51.494;11.930;2022-07-01T06:01:02;15.00;;;13.50;;
14982;SDS011;7587;51.494;11.930;2022-07-01T06:03:28;15.80;;;14.27;;
14982;SDS011;7587;51.494;11.930;2022-07-01T06:05:54;16.08;;;14.50;;
14982;SDS011;7587;51.494;11.930;2022-07-01T06:08:21;15.20;;;13.70;;
14982;SDS011;7587;51.494;11.930;2022-07-01T06:10:47;13.80;;;12.40;;
14982;SDS011;7587;51.494;11.930;2022-07-01T06:13:14;14.43;;;13.02;;
14982;SDS011;7587;51.494;11.930;2022-07-01T06:15:41;14.77;;;13.30;;
14982;SDS011;7587;51.494;11.930;2022-07-01T06:18:09;12.77;;;11.60;;
14982;SDS011;7587;51.494;11.930;2022-07-01T06:20:35;13.30;;;12.10;;
14982;SDS011;7587;51.494;11.930;2022-07-01T06:23:01;10.73;;;9.75;;
14982;SDS011;7587;51.494;11.930;2022-07-01T06:25:27;11.80;;;9.00;;
14982;SDS011;7587;51.494;11.930;2022-07-01T06:30:56;5.47;;;4.70;;
14982;SDS011;7587;51.494;11.930;2022-07-01T06:33:24;5.35;;;4.20;;
14982;SDS011;7587;51.494;11.930;2022-07-01T06:35:52;4.50;;;4.10;;
14982;SDS011;7587;51.494;11.930;2022-07-01T06:38:18;3.47;;;3.17;;
14982;SDS011;7587;51.494;11.930;2022-07-01T06:40:44;4.68;;;2.75;;
14982;SDS011;7587;51.494;11.930;2022-07-01T06:43:31;2.50;;;2.30;;
14982;SDS011;7587;51.494;11.930;2022-07-01T06:45:57;2.20;;;2.05;;
14982;SDS011;7587;51.494;11.930;2022-07-01T06:48:26;1.90;;;1.80;;
14982;SDS011;7587;51.494;11.930;2022-07-01T06:53:40;1.92;;;1.70;;
14982;SDS011;7587;51.494;11.930;2022-07-01T07:01:26;1.30;;;1.20;;
14982;SDS011;7587;51.494;11.930;2022-07-01T07:04:05;0.90;;;0.90;;
14982;SDS011;7587;51.494;11.930;2022-07-01T07:06:32;1.48;;;1.00;;
14982;SDS011;7587;51.494;11.930;2022-07-01T07:08:59;1.23;;;1.05;;
14982;SDS011;7587;51.494;11.930;2022-07-01T07:11:25;1.00;;;0.90;;
14982;SDS011;7587;51.494;11.930;2022-07-01T07:13:52;0.90;;;0.90;;
14982;SDS011;7587;51.494;11.930;2022-07-01T07:16:18;0.95;;;0.95;;
14982;SDS011;7587;51.494;11.930;2022-07-01T07:18:46;1.30;;;1.30;;
14982;SDS011;7587;51.494;11.930;2022-07-01T07:24:16;2.70;;;1.48;;
14982;SDS011;7587;51.494;11.930;2022-07-01T07:26:55;3.90;;;1.20;;
14982;SDS011;7587;51.494;11.930;2022-07-01T07:34:46;1.65;;;1.55;;
14982;SDS011;7587;51.494;11.930;2022-07-01T07:35:43;4.00;;;1.17;;
14982;SDS011;7587;51.494;11.930;2022-07-01T07:38:13;1.70;;;1.60;;
14982;SDS011;7587;51.494;11.930;2022-07-01T07:40:54;2.55;;;2.35;;
14982;SDS011;7587;51.494;11.930;2022-07-01T07:43:32;4.80;;;4.38;;
14982;SDS011;7587;51.494;11.930;2022-07-01T07:46:04;5.22;;;4.82;;
14982;SDS011;7587;51.494;11.930;2022-07-01T07:48:34;6.35;;;5.07;;
14982;SDS011;7587;51.494;11.930;2022-07-01T07:51:01;7.15;;;6.45;;
14982;SDS011;7587;51.494;11.930;2022-07-01T07:56:35;10.05;;;8.82;;
14982;SDS011;7587;51.494;11.930;2022-07-01T07:59:01;11.65;;;9.48;;
14982;SDS011;7587;51.494;11.930;2022-07-01T08:01:27;11.85;;;10.32;;
14982;SDS011;7587;51.494;11.930;2022-07-01T08:03:54;11.52;;;10.30;;
14982;SDS011;7587;51.494;11.930;2022-07-01T08:06:40;12.52;;;11.23;;
14982;SDS011;7587;51.494;11.930;2022-07-01T08:09:06;13.68;;;12.27;;
14982;SDS011;7587;51.494;11.930;2022-07-01T08:11:41;13.60;;;12.15;;
14982;SDS011;7587;51.494;11.930;2022-07-01T08:14:07;13.00;;;11.82;;
14982;SDS011;7587;51.494;11.930;2022-07-01T08:16:34;13.65;;;12.35;;
14982;SDS011;7587;51.494;11.930;2022-07-01T08:19:01;13.30;;;11.48;;
14982;SDS011;7587;51.494;11.930;2022-07-01T08:21:28;14.75;;;11.27;;
14982;SDS011;7587;51.494;11.930;2022-07-01T08:23:54;12.68;;;11.25;;
14982;SDS011;7587;51.494;11.930;2022-07-01T08:26:21;12.68;;;10.85;;
14982;SDS011;7587;51.494;11.930;2022-07-01T08:28:50;14.25;;;11.52;;
14982;SDS011;7587;51.494;11.930;2022-07-01T08:31:16;13.25;;;11.90;;
14982;SDS011;7587;51.494;11.930;2022-07-01T08:33:43;13.98;;;11.90;;
14982;SDS011;7587;51.494;11.930;2022-07-01T08:36:09;13.65;;;11.48;;
14982;SDS011;7587;51.494;11.930;2022-07-01T08:38:36;11.88;;;10.68;;
14982;SDS011;7587;51.494;11.930;2022-07-01T08:41:02;12.07;;;10.32;;
14982;SDS011;7587;51.494;11.930;2022-07-01T08:43:29;11.57;;;10.43;;
14982;SDS011;7587;51.494;11.930;2022-07-01T08:45:59;10.93;;;9.63;;
14982;SDS011;7587;51.494;11.930;2022-07-01T08:48:33;9.90;;;8.95;;
14982;SDS011;7587;51.494;11.930;2022-07-01T08:50:59;10.60;;;9.55;;
14982;SDS011;7587;51.494;11.930;2022-07-01T08:53:29;11.48;;;10.38;;
14982;SDS011;7587;51.494;11.930;2022-07-01T08:55:56;10.38;;;9.35;;
14982;SDS011;7587;51.494;11.930;2022-07-01T08:58:39;10.15;;;9.25;;
14982;SDS011;7587;51.494;11.930;2022-07-01T09:01:14;10.25;;;9.32;;
14982;SDS011;7587;51.494;11.930;2022-07-01T09:03:41;10.98;;;9.68;;
14982;SDS011;7587;51.494;11.930;2022-07-01T09:06:10;10.18;;;9.02;;
14982;SDS011;7587;51.494;11.930;2022-07-01T09:08:37;9.75;;;8.73;;
14982;SDS011;7587;51.494;11.930;2022-07-01T09:11:10;10.25;;;8.93;;
14982;SDS011;7587;51.494;11.930;2022-07-01T09:13:36;10.85;;;9.75;;
14982;SDS011;7587;51.494;11.930;2022-07-01T09:16:09;10.30;;;9.23;;
14982;SDS011;7587;51.494;11.930;2022-07-01T09:18:38;9.73;;;8.77;;
14982;SDS011;7587;51.494;11.930;2022-07-01T09:21:07;11.45;;;9.18;;
14982;SDS011;7587;51.494;11.930;2022-07-01T09:23:33;10.60;;;8.82;;
14982;SDS011;7587;51.494;11.930;2022-07-01T09:26:00;9.15;;;8.25;;
14982;SDS011;7587;51.494;11.930;2022-07-01T09:28:26;9.50;;;8.70;;
14982;SDS011;7587;51.494;11.930;2022-07-01T09:30:53;9.70;;;8.85;;
14982;SDS011;7587;51.494;11.930;2022-07-01T09:33:21;11.20;;;10.10;;
14982;SDS011;7587;51.494;11.930;2022-07-01T09:35:50;10.43;;;9.43;;
14982;SDS011;7587;51.494;11.930;2022-07-01T09:38:17;10.40;;;8.55;;
14982;SDS011;7587;51.494;11.930;2022-07-01T09:40:51;9.48;;;8.13;;
14982;SDS011;7587;51.494;11.930;2022-07-01T09:43:18;9.05;;;8.25;;
14982;SDS011;7587;51.494;11.930;2022-07-01T09:45:52;9.80;;;8.02;;
14982;SDS011;7587;51.494;11.930;2022-07-01T09:48:18;9.05;;;8.15;;
14982;SDS011;7587;51.494;11.930;2022-07-01T09:50:45;9.00;;;6.90;;
14982;SDS011;7587;51.494;11.930;2022-07-01T09:53:13;7.70;;;6.90;;
14982;SDS011;7587;51.494;11.930;2022-07-01T09:55:40;7.07;;;6.38;;
14982;SDS011;7587;51.494;11.930;2022-07-01T09:58:07;7.55;;;6.93;;
14982;SDS011;7587;51.494;11.930;2022-07-01T10:00:34;7.82;;;6.85;;
14982;SDS011;7587;51.494;11.930;2022-07-01T10:03:00;8.85;;;7.72;;
14982;SDS011;7587;51.494;11.930;2022-07-01T10:05:28;7.35;;;6.65;;
14982;SDS011;7587;51.494;11.930;2022-07-01T10:08:02;8.88;;;6.65;;
14982;SDS011;7587;51.494;11.930;2022-07-01T10:10:38;7.90;;;7.10;;
14982;SDS011;7587;51.494;11.930;2022-07-01T10:13:07;8.70;;;7.82;;
14982;SDS011;7587;51.494;11.930;2022-07-01T10:15:33;7.25;;;6.47;;
14982;SDS011;7587;51.494;11.930;2022-07-01T10:18:00;7.50;;;6.18;;
14982;SDS011;7587;51.494;11.930;2022-07-01T10:20:27;8.13;;;6.25;;
14982;SDS011;7587;51.494;11.930;2022-07-01T10:22:59;7.82;;;6.22;;
14982;SDS011;7587;51.494;11.930;2022-07-01T10:25:33;7.65;;;6.45;;
14982;SDS011;7587;51.494;11.930;2022-07-01T10:28:21;6.82;;;5.97;;
14982;SDS011;7587;51.494;11.930;2022-07-01T10:30:59;10.68;;;5.75;;
14982;SDS011;7587;51.494;11.930;2022-07-01T10:33:32;7.18;;;6.10;;
14982;SDS011;7587;51.494;11.930;2022-07-01T10:36:03;6.65;;;5.82;;
14982;SDS011;7587;51.494;11.930;2022-07-01T10:38:30;7.07;;;6.40;;
14982;SDS011;7587;51.494;11.930;2022-07-01T10:40:57;6.68;;;6.07;;
14982;SDS011;7587;51.494;11.930;2022-07-01T10:46:41;6.38;;;5.78;;
14982;SDS011;7587;51.494;11.930;2022-07-01T10:49:09;5.80;;;5.20;;
14982;SDS011;7587;51.494;11.930;2022-07-01T10:51:47;5.20;;;4.80;;
14982;SDS011;7587;51.494;11.930;2022-07-01T10:57:18;5.00;;;4.60;;
14982;SDS011;7587;51.494;11.930;2022-07-01T10:59:45;5.00;;;4.50;;
14982;SDS011;7587;51.494;11.930;2022-07-01T11:02:16;4.97;;;4.57;;
14982;SDS011;7587;51.494;11.930;2022-07-01T11:04:42;5.20;;;4.80;;
14982;SDS011;7587;51.494;11.930;2022-07-01T11:07:09;4.75;;;4.45;;
14982;SDS011;7587;51.494;11.930;2022-07-01T11:09:35;4.80;;;4.50;;
14982;SDS011;7587;51.494;11.930;2022-07-01T11:12:02;2.10;;;2.00;;
14982;SDS011;7587;51.494;11.930;2022-07-01T11:14:29;1.95;;;1.85;;
14982;SDS011;7587;51.494;11.930;2022-07-01T11:16:59;2.30;;;1.80;;
14982;SDS011;7587;51.494;11.930;2022-07-01T11:19:28;1.90;;;1.80;;
14982;SDS011;7587;51.494;11.930;2022-07-01T11:21:54;1.92;;;1.45;;
14982;SDS011;7587;51.494;11.930;2022-07-01T11:24:21;3.88;;;1.48;;
14982;SDS011;7587;51.494;11.930;2022-07-01T11:29:41;1.63;;;1.30;;
14982;SDS011;7587;51.494;11.930;2022-07-01T11:32:07;1.80;;;1.70;;
14982;SDS011;7587;51.494;11.930;2022-07-01T11:34:36;1.95;;;1.67;;
14982;SDS011;7587;51.494;11.930;2022-07-01T11:37:08;1.77;;;1.67;;
14982;SDS011;7587;51.494;11.930;2022-07-01T11:40:02;1.30;;;1.20;;
14982;SDS011;7587;51.494;11.930;2022-07-01T11:42:28;1.52;;;1.42;;
14982;SDS011;7587;51.494;11.930;2022-07-01T11:44:56;1.70;;;1.60;;
14982;SDS011;7587;51.494;11.930;2022-07-01T11:47:24;1.67;;;1.58;;
14982;SDS011;7587;51.494;11.930;2022-07-01T11:49:52;1.90;;;1.60;;
14982;SDS011;7587;51.494;11.930;2022-07-01T11:55:22;2.85;;;2.20;;
14982;SDS011;7587;51.494;11.930;2022-07-01T11:57:49;1.85;;;1.75;;
14982;SDS011;7587;51.494;11.930;2022-07-01T12:00:19;2.20;;;2.10;;
14982;SDS011;7587;51.494;11.930;2022-07-01T12:02:49;1.98;;;1.88;;
14982;SDS011;7587;51.494;11.930;2022-07-01T12:05:17;2.15;;;1.95;;
14982;SDS011;7587;51.494;11.930;2022-07-01T12:07:56;1.92;;;1.83;;
14982;SDS011;7587;51.494;11.930;2022-07-01T12:10:41;2.47;;;2.38;;
14982;SDS011;7587;51.494;11.930;2022-07-01T12:13:28;2.45;;;2.35;;
14982;SDS011;7587;51.494;11.930;2022-07-01T12:16:05;2.53;;;2.42;;
14982;SDS011;7587;51.494;11.930;2022-07-01T12:18:50;2.72;;;2.53;;
14982;SDS011;7587;51.494;11.930;2022-07-01T12:21:18;2.97;;;2.65;;
14982;SDS011;7587;51.494;11.930;2022-07-01T12:26:26;3.03;;;2.83;;
14982;SDS011;7587;51.494;11.930;2022-07-01T12:28:53;3.70;;;2.80;;
14982;SDS011;7587;51.494;11.930;2022-07-01T12:31:20;3.03;;;2.83;;
14982;SDS011;7587;51.494;11.930;2022-07-01T12:33:48;7.55;;;3.22;;
14982;SDS011;7587;51.494;11.930;2022-07-01T12:36:15;3.10;;;2.90;;
14982;SDS011;7587;51.494;11.930;2022-07-01T12:38:43;2.92;;;2.72;;
14982;SDS011;7587;51.494;11.930;2022-07-01T12:41:26;4.05;;;3.25;;
14982;SDS011;7587;51.494;11.930;2022-07-01T12:44:05;3.15;;;2.90;;
14982;SDS011;7587;51.494;11.930;2022-07-01T12:46:37;3.95;;;3.20;;
14982;SDS011;7587;51.494;11.930;2022-07-01T12:49:05;3.78;;;3.47;;
14982;SDS011;7587;51.494;11.930;2022-07-01T12:51:31;3.55;;;3.25;;
14982;SDS011;7587;51.494;11.930;2022-07-01T12:56:46;3.72;;;3.53;;
14982;SDS011;7587;51.494;11.930;2022-07-01T13:02:18;4.10;;;3.70;;
14982;SDS011;7587;51.494;11.930;2022-07-01T13:04:46;6.90;;;4.82;;
14982;SDS011;7587;51.494;11.930;2022-07-01T13:07:13;4.35;;;4.05;;
14982;SDS011;7587;51.494;11.930;2022-07-01T13:09:41;4.00;;;3.70;;
14982;SDS011;7587;51.494;11.930;2022-07-01T13:12:09;4.70;;;4.18;;
14982;SDS011;7587;51.494;11.930;2022-07-01T13:20:52;5.43;;;4.95;;
14982;SDS011;7587;51.494;11.930;2022-07-01T13:23:18;6.03;;;5.13;;
14982;SDS011;7587;51.494;11.930;2022-07-01T13:25:44;5.28;;;4.88;;
14982;SDS011;7587;51.494;11.930;2022-07-01T13:28:12;6.10;;;5.45;;
14982;SDS011;7587;51.494;11.930;2022-07-01T13:30:39;5.88;;;5.38;;
14982;SDS011;7587;51.494;11.930;2022-07-01T13:33:05;5.68;;;5.18;;
14982;SDS011;7587;51.494;11.930;2022-07-01T13:35:32;5.70;;;5.20;;
14982;SDS011;7587;51.494;11.930;2022-07-01T13:37:59;5.80;;;5.30;;
14982;SDS011;7587;51.494;11.930;2022-07-01T13:40:26;5.95;;;5.45;;
14982;SDS011;7587;51.494;11.930;2022-07-01T13:42:54;5.50;;;5.03;;
14982;SDS011;7587;51.494;11.930;2022-07-01T13:45:22;5.93;;;5.50;;
14982;SDS011;7587;51.494;11.930;2022-07-01T13:47:48;5.43;;;5.03;;
14982;SDS011;7587;51.494;11.930;2022-07-01T13:50:14;5.68;;;5.18;;
14982;SDS011;7587;51.494;11.930;2022-07-01T13:52:44;5.50;;;5.00;;
14982;SDS011;7587;51.494;11.930;2022-07-01T13:55:10;5.50;;;5.00;;
14982;SDS011;7587;51.494;11.930;2022-07-01T13:57:37;6.03;;;5.50;;
14982;SDS011;7587;51.494;11.930;2022-07-01T14:00:03;5.90;;;5.30;;
14982;SDS011;7587;51.494;11.930;2022-07-01T14:02:31;7.03;;;5.38;;
14982;SDS011;7587;51.494;11.930;2022-07-01T14:04:58;6.15;;;5.53;;
14982;SDS011;7587;51.494;11.930;2022-07-01T14:07:24;6.15;;;5.65;;
14982;SDS011;7587;51.494;11.930;2022-07-01T14:09:51;6.68;;;5.90;;
14982;SDS011;7587;51.494;11.930;2022-07-01T14:12:17;5.85;;;5.30;;
14982;SDS011;7587;51.494;11.930;2022-07-01T14:14:43;6.40;;;5.47;;
14982;SDS011;7587;51.494;11.930;2022-07-01T14:17:09;6.03;;;5.40;;
14982;SDS011;7587;51.494;11.930;2022-07-01T14:19:37;5.60;;;5.20;;
14982;SDS011;7587;51.494;11.930;2022-07-01T14:22:03;5.55;;;5.05;;
14982;SDS011;7587;51.494;11.930;2022-07-01T14:24:30;5.43;;;4.93;;
14982;SDS011;7587;51.494;11.930;2022-07-01T14:26:56;6.38;;;5.80;;
14982;SDS011;7587;51.494;11.930;2022-07-01T14:29:22;7.28;;;6.28;;
14982;SDS011;7587;51.494;11.930;2022-07-01T14:31:49;7.57;;;6.82;;
14982;SDS011;7587;51.494;11.930;2022-07-01T14:34:15;7.22;;;5.97;;
14982;SDS011;7587;51.494;11.930;2022-07-01T14:36:43;7.40;;;6.65;;
14982;SDS011;7587;51.494;11.930;2022-07-01T14:39:09;7.53;;;6.70;;
14982;SDS011;7587;51.494;11.930;2022-07-01T14:41:36;10.18;;;7.25;;
14982;SDS011;7587;51.494;11.930;2022-07-01T14:44:02;7.30;;;6.70;;
14982;SDS011;7587;51.494;11.930;2022-07-01T14:46:28;7.50;;;6.80;;
14982;SDS011;7587;51.494;11.930;2022-07-01T14:48:55;8.10;;;7.40;;
14982;SDS011;7587;51.494;11.930;2022-07-01T14:51:21;7.55;;;6.93;;
14982;SDS011;7587;51.494;11.930;2022-07-01T14:53:49;7.63;;;7.00;;
14982;SDS011;7587;51.494;11.930;2022-07-01T14:56:15;9.30;;;6.93;;
14982;SDS011;7587;51.494;11.930;2022-07-01T14:58:41;7.65;;;6.95;;
14982;SDS011;7587;51.494;11.930;2022-07-01T15:04:21;6.80;;;6.20;;
14982;SDS011;7587;51.494;11.930;2022-07-01T15:06:47;8.57;;;6.80;;
14982;SDS011;7587;51.494;11.930;2022-07-01T15:09:15;7.25;;;6.55;;
14982;SDS011;7587;51.494;11.930;2022-07-01T15:11:44;8.57;;;7.55;;
14982;SDS011;7587;51.494;11.930;2022-07-01T15:14:10;7.28;;;6.57;;
14982;SDS011;7587;51.494;11.930;2022-07-01T15:16:37;7.47;;;6.75;;
14982;SDS011;7587;51.494;11.930;2022-07-01T15:19:03;8.25;;;7.43;;
14982;SDS011;7587;51.494;11.930;2022-07-01T15:21:30;7.75;;;7.05;;
14982;SDS011;7587;51.494;11.930;2022-07-01T15:23:56;7.55;;;6.75;;
14982;SDS011;7587;51.494;11.930;2022-07-01T15:26:24;9.68;;;7.32;;
14982;SDS011;7587;51.494;11.930;2022-07-01T15:28:50;9.32;;;7.07;;
14982;SDS011;7587;51.494;11.930;2022-07-01T15:31:17;9.35;;;7.60;;
14982;SDS011;7587;51.494;11.930;2022-07-01T15:33:43;8.88;;;7.97;;
14982;SDS011;7587;51.494;11.930;2022-07-01T15:36:10;8.88;;;8.00;;
14982;SDS011;7587;51.494;11.930;2022-07-01T15:38:36;8.73;;;7.82;;
14982;SDS011;7587;51.494;11.930;2022-07-01T15:41:02;8.68;;;7.85;;
14982;SDS011;7587;51.494;11.930;2022-07-01T15:43:30;9.07;;;8.10;;
14982;SDS011;7587;51.494;11.930;2022-07-01T15:45:56;8.35;;;7.57;;
14982;SDS011;7587;51.494;11.930;2022-07-01T15:48:23;8.63;;;7.60;;
14982;SDS011;7587;51.494;11.930;2022-07-01T15:50:49;11.13;;;7.85;;
14982;SDS011;7587;51.494;11.930;2022-07-01T15:53:15;9.55;;;8.65;;
14982;SDS011;7587;51.494;11.930;2022-07-01T15:55:42;11.05;;;9.98;;
14982;SDS011;7587;51.494;11.930;2022-07-01T15:58:10;10.30;;;9.30;;
14982;SDS011;7587;51.494;11.930;2022-07-01T16:00:37;9.52;;;8.63;;
14982;SDS011;7587;51.494;11.930;2022-07-01T16:03:05;8.40;;;7.63;;
14982;SDS011;7587;51.494;11.930;2022-07-01T16:05:32;9.10;;;8.20;;
14982;SDS011;7587;51.494;11.930;2022-07-01T16:07:59;10.27;;;9.38;;
14982;SDS011;7587;51.494;11.930;2022-07-01T16:10:31;9.32;;;8.50;;
14982;SDS011;7587;51.494;11.930;2022-07-01T16:12:59;9.73;;;8.80;;
14982;SDS011;7587;51.494;11.930;2022-07-01T16:15:26;9.15;;;8.25;;
14982;SDS011;7587;51.494;11.930;2022-07-01T16:17:56;10.10;;;8.45;;
14982;SDS011;7587;51.494;11.930;2022-07-01T16:20:23;9.18;;;8.38;;
14982;SDS011;7587;51.494;11.930;2022-07-01T16:22:49;10.00;;;8.55;;
14982;SDS011;7587;51.494;11.930;2022-07-01T16:25:17;9.55;;;8.55;;
14982;SDS011;7587;51.494;11.930;2022-07-01T16:27:44;9.55;;;8.65;;
14982;SDS011;7587;51.494;11.930;2022-07-01T16:30:11;9.38;;;8.40;;
14982;SDS011;7587;51.494;11.930;2022-07-01T16:32:37;10.27;;;9.23;;
14982;SDS011;7587;51.494;11.930;2022-07-01T16:35:08;9.90;;;9.00;;
14982;SDS011;7587;51.494;11.930;2022-07-01T16:37:35;10.63;;;9.70;;
14982;SDS011;7587;51.494;11.930;2022-07-01T16:40:03;10.02;;;9.02;;
14982;SDS011;7587;51.494;11.930;2022-07-01T16:42:30;10.25;;;9.15;;
14982;SDS011;7587;51.494;11.930;2022-07-01T16:44:58;10.20;;;9.15;;
14982;SDS011;7587;51.494;11.930;2022-07-01T16:47:26;10.48;;;9.38;;
14982;SDS011;7587;51.494;11.930;2022-07-01T16:49:52;9.70;;;8.80;;
14982;SDS011;7587;51.494;11.930;2022-07-01T16:52:22;9.88;;;8.98;;
14982;SDS011;7587;51.494;11.930;2022-07-01T16:54:54;9.30;;;8.40;;
14982;SDS011;7587;51.494;11.930;2022-07-01T16:57:23;9.80;;;8.88;;
14982;SDS011;7587;51.494;11.930;2022-07-01T16:59:51;11.50;;;8.68;;